HVN weather

Tweed New Haven Airport
New Haven, Connecticut, United States

Public forecast

Using degrees Fahrenheit for public forecast. Weather courtesy of forecast.io.

METAR (pilot weather report)

Retrieved 2019/09/19 08:53 UTC (1 hour ago):

KHVN 190853Z AUTO 36006KT 10SM CLR 08/06 A3033 RMK AO2 SLP271 T00780056 58001

TAF (pilot weather forecast)

Closest forecast is Igor I Sikorsky Memorial Airport, 12.4 nm (22.9 km) WSW. Retrieved 2019/09/19 06:36 UTC (3 hours ago):

TAF KBDR 190535Z 1906/2006 03008KT P6SM SKC FM191500 08008KT P6SM SKC FM191900 17007KT P6SM SKC FM192300 23003KT P6SM SKC FM200300 28003KT P6SM SKC